Jalapa, Guatemala
Current Conditions -  °F | °C
As of 9:50 AM on Friday 21 Nov 2014 (Local Time) from MSSS Reporting Station
Clear Clear  
Wind Chill: 77°   Ceiling: Unl
Heat Index: 79°   Visibility: 6mi
Dew Point: 68°   Wind: 10mph
Humidity: 74%   Direction: 340°NNW
Pressure: 30.03"   Gusts: NA
Location:  14.39°N, 89.59°W
Report Text: MSSS 211550Z 34009KT CAVOK 25/20 Q1017 A3006
Loading
Personal Weather Stations






























Interactive Weather Map New forecast layout! Learn more

10-Day Weather Forecast

Advertisements
Track Severe Weather on mobile